Time;durP1;ratioP1;P1;durP2;ratioP2;P2;SDS_P1;SDS_P2;PMS_P1;PMS_P2;Temp;Humidity;BMP_temperature;BMP_pressure;BME280_temperature;BME280_humidity;BME280_pressure;Samples;Min_cycle;Max_cycle;Signal;HPM_P1;HPM_P2
2023/09/18 00:00:02;;;;;;;8.80;6.53;;;;;;;;;;5060488;28;20037;-77
2023/09/18 00:02:29;;;;;;;8.82;6.43;;;;;;;;;;4992847;28;20411;-76
2023/09/18 00:04:54;;;;;;;8.02;5.95;;;;;;;;;;4993308;28;20046;-76
2023/09/18 00:07:20;;;;;;;11.15;6.40;;;;;;;;;;5059589;28;20041;-78
2023/09/18 00:09:45;;;;;;;7.07;5.40;;;;;;;;;;4992831;28;20046;-78
2023/09/18 00:12:10;;;;;;;7.95;5.43;;;;;;;;;;5059173;28;20103;-77
2023/09/18 00:14:38;;;;;;;9.57;5.55;;;;;;;;;;4993019;28;20123;-77
2023/09/18 00:17:04;;;;;;;7.72;4.82;;;;;;;;;;5059313;28;20034;-75
2023/09/18 00:19:31;;;;;;;7.45;5.90;;;;;;;;;;4992285;28;20053;-77
2023/09/18 00:21:59;;;;;;;8.10;5.45;;;;;;;;;;4992788;28;20037;-76
2023/09/18 00:24:25;;;;;;;7.22;5.75;;;;;;;;;;5059228;28;20056;-76
2023/09/18 00:26:52;;;;;;;8.52;6.45;;;;;;;;;;4992588;28;20463;-76
2023/09/18 00:29:18;;;;;;;8.50;6.13;;;;;;;;;;5058733;28;20026;-77
2023/09/18 00:31:43;;;;;;;6.13;5.25;;;;;;;;;;5058666;28;20037;-75
2023/09/18 00:34:09;;;;;;;8.00;5.32;;;;;;;;;;4984697;28;20038;-75
2023/09/18 00:36:34;;;;;;;10.73;4.75;;;;;;;;;;4984438;28;20033;-75
2023/09/18 00:38:59;;;;;;;4.20;3.72;;;;;;;;;;4986317;28;20030;-75
2023/09/18 00:41:24;;;;;;;5.30;4.28;;;;;;;;;;4985896;28;20035;-75
2023/09/18 00:43:50;;;;;;;4.78;4.30;;;;;;;;;;4984002;28;20534;-75
2023/09/18 00:46:15;;;;;;;5.75;4.20;;;;;;;;;;4986776;28;20088;-76
2023/09/18 00:48:41;;;;;;;6.75;4.07;;;;;;;;;;4984608;28;20038;-75
2023/09/18 00:51:08;;;;;;;7.85;4.50;;;;;;;;;;4984342;28;20054;-75
2023/09/18 00:53:34;;;;;;;10.15;4.85;;;;;;;;;;4985986;28;20026;-75
2023/09/18 00:56:00;;;;;;;5.35;4.68;;;;;;;;;;5039172;28;20092;-76
2023/09/18 00:58:26;;;;;;;4.82;4.35;;;;;;;;;;4984450;28;20694;-76
2023/09/18 01:00:51;;;;;;;5.72;5.07;;;;;;;;;;4988165;28;20038;-75
2023/09/18 01:03:18;;;;;;;7.07;5.53;;;;;;;;;;4981788;28;20045;-75
2023/09/18 01:05:44;;;;;;;12.48;6.25;;;;;;;;;;4984895;28;20029;-76
2023/09/18 01:08:10;;;;;;;9.10;5.68;;;;;;;;;;4984033;28;20509;-75
2023/09/18 01:11:19;;;;;;;12.43;5.97;;;;;;;;;;4984701;28;20050;-75
2023/09/18 01:14:13;;;;;;;6.40;5.63;;;;;;;;;;4998555;28;20043;-75
2023/09/18 01:16:50;;;;;;;6.68;5.15;;;;;;;;;;4989318;28;20046;-76
2023/09/18 01:19:16;;;;;;;6.53;5.40;;;;;;;;;;4984456;28;20038;-75
2023/09/18 01:21:41;;;;;;;10.30;5.75;;;;;;;;;;5050927;28;20034;-76
2023/09/18 01:24:07;;;;;;;8.93;5.70;;;;;;;;;;4984875;28;20026;-75
2023/09/18 01:26:32;;;;;;;6.22;5.30;;;;;;;;;;4983918;28;20106;-76
2023/09/18 01:28:57;;;;;;;9.70;6.18;;;;;;;;;;4983559;28;20053;-75
2023/09/18 01:31:23;;;;;;;9.68;6.35;;;;;;;;;;4983309;28;20250;-76
2023/09/18 01:33:49;;;;;;;5.95;5.30;;;;;;;;;;4983329;28;20045;-76
2023/09/18 01:36:17;;;;;;;13.18;5.10;;;;;;;;;;4983469;28;20030;-75
2023/09/18 01:38:42;;;;;;;14.07;6.05;;;;;;;;;;4984048;28;20105;-76
2023/09/18 01:41:09;;;;;;;6.40;4.93;;;;;;;;;;4986106;28;20184;-76
2023/09/18 01:43:35;;;;;;;9.23;5.28;;;;;;;;;;4985789;28;21286;-75
2023/09/18 01:46:00;;;;;;;9.10;5.10;;;;;;;;;;4981279;28;20078;-76
2023/09/18 01:48:25;;;;;;;7.00;4.38;;;;;;;;;;4981094;28;20046;-75
2023/09/18 01:50:51;;;;;;;5.47;4.95;;;;;;;;;;4985859;28;20052;-76
2023/09/18 01:53:16;;;;;;;10.35;5.53;;;;;;;;;;4996752;28;20030;-76
2023/09/18 01:55:43;;;;;;;7.28;5.00;;;;;;;;;;4984288;28;20068;-76
2023/09/18 01:58:09;;;;;;;6.57;5.03;;;;;;;;;;4984919;28;20096;-76
2023/09/18 02:00:35;;;;;;;9.77;4.93;;;;;;;;;;4986463;28;20046;-75
2023/09/18 02:03:00;;;;;;;7.63;3.90;;;;;;;;;;4985518;28;20485;-76
2023/09/18 02:05:25;;;;;;;8.63;4.50;;;;;;;;;;4986094;28;20035;-76
2023/09/18 02:07:51;;;;;;;5.20;4.30;;;;;;;;;;4975186;28;20166;-75
2023/09/18 02:10:16;;;;;;;9.32;4.90;;;;;;;;;;4997924;28;20026;-76
2023/09/18 02:12:41;;;;;;;5.88;4.47;;;;;;;;;;4999264;28;20413;-76
2023/09/18 02:15:10;;;;;;;5.20;4.32;;;;;;;;;;4988566;28;20056;-75
2023/09/18 02:17:35;;;;;;;6.18;4.22;;;;;;;;;;4994603;28;20057;-75
2023/09/18 02:20:04;;;;;;;6.18;4.13;;;;;;;;;;4989810;28;20031;-75
2023/09/18 02:22:31;;;;;;;10.40;4.82;;;;;;;;;;4973040;28;20106;-76
2023/09/18 02:24:58;;;;;;;9.40;4.97;;;;;;;;;;4989774;28;20040;-75
2023/09/18 02:27:23;;;;;;;7.88;5.20;;;;;;;;;;4979596;28;20116;-75
2023/09/18 02:29:50;;;;;;;6.90;5.10;;;;;;;;;;4988251;28;20026;-75
2023/09/18 02:32:15;;;;;;;10.43;5.32;;;;;;;;;;4995906;28;20045;-75
2023/09/18 02:34:40;;;;;;;5.35;4.82;;;;;;;;;;4988416;28;20034;-75
2023/09/18 02:37:06;;;;;;;6.47;4.65;;;;;;;;;;4980224;28;20046;-75
2023/09/18 02:39:31;;;;;;;6.15;4.65;;;;;;;;;;4987268;28;20058;-75
2023/09/18 02:41:56;;;;;;;6.28;4.80;;;;;;;;;;4990150;28;20390;-75
2023/09/18 02:44:22;;;;;;;10.60;4.47;;;;;;;;;;4988309;28;20425;-75
2023/09/18 02:46:47;;;;;;;6.00;4.90;;;;;;;;;;4998616;28;20066;-75
2023/09/18 02:49:12;;;;;;;5.32;4.82;;;;;;;;;;4978559;28;20134;-75
2023/09/18 02:51:38;;;;;;;6.15;4.95;;;;;;;;;;4988447;28;20112;-76
2023/09/18 02:54:03;;;;;;;7.18;4.53;;;;;;;;;;4960782;28;20034;-75
2023/09/18 02:56:28;;;;;;;7.30;5.00;;;;;;;;;;4959754;28;20497;-76
2023/09/18 02:58:54;;;;;;;7.38;5.15;;;;;;;;;;4985592;28;20125;-76
2023/09/18 03:01:19;;;;;;;7.57;4.35;;;;;;;;;;4986022;28;20027;-75
2023/09/18 03:03:44;;;;;;;6.28;4.25;;;;;;;;;;4968784;28;20035;-76
2023/09/18 03:06:10;;;;;;;7.45;4.82;;;;;;;;;;4968367;28;20034;-76
2023/09/18 03:08:35;;;;;;;10.73;4.45;;;;;;;;;;4987475;28;20018;-77
2023/09/18 03:11:01;;;;;;;11.60;5.25;;;;;;;;;;4971473;28;20038;-78
2023/09/18 03:13:28;;;;;;;7.97;5.38;;;;;;;;;;5012748;28;20037;-77
2023/09/18 03:15:53;;;;;;;10.10;6.57;;;;;;;;;;4994170;28;20466;-76
2023/09/18 03:18:18;;;;;;;11.00;6.03;;;;;;;;;;4989105;28;20080;-76
2023/09/18 03:20:43;;;;;;;9.93;5.32;;;;;;;;;;4992050;28;20155;-77
2023/09/18 03:23:09;;;;;;;8.25;5.15;;;;;;;;;;4988126;28;20038;-77
2023/09/18 03:25:37;;;;;;;13.57;5.05;;;;;;;;;;4984577;28;20034;-77
2023/09/18 03:28:02;;;;;;;12.57;5.45;;;;;;;;;;4971368;28;20424;-77
2023/09/18 03:30:28;;;;;;;7.43;4.97;;;;;;;;;;4971107;28;20038;-77
2023/09/18 03:32:53;;;;;;;7.78;4.68;;;;;;;;;;4988436;28;20026;-77
2023/09/18 03:35:19;;;;;;;9.30;4.00;;;;;;;;;;4991895;28;20039;-77
2023/09/18 03:37:45;;;;;;;8.70;3.10;;;;;;;;;;4969671;28;20114;-76
2023/09/18 03:40:11;;;;;;;7.97;3.33;;;;;;;;;;4985269;28;20026;-77
2023/09/18 03:42:36;;;;;;;4.75;3.45;;;;;;;;;;4985587;28;20039;-76
2023/09/18 03:45:03;;;;;;;7.75;3.63;;;;;;;;;;4986590;28;20140;-78
2023/09/18 03:47:28;;;;;;;8.38;3.50;;;;;;;;;;4985427;28;20565;-77
2023/09/18 03:49:53;;;;;;;12.75;3.70;;;;;;;;;;4986094;28;20027;-79
2023/09/18 03:52:19;;;;;;;8.02;3.25;;;;;;;;;;4987014;28;20066;-76
2023/09/18 03:54:44;;;;;;;7.07;3.80;;;;;;;;;;4969579;28;20061;-77
2023/09/18 03:57:09;;;;;;;7.80;4.47;;;;;;;;;;4985742;28;20025;-77
2023/09/18 03:59:34;;;;;;;8.32;3.85;;;;;;;;;;4969753;28;20025;-77
2023/09/18 04:02:00;;;;;;;5.57;3.58;;;;;;;;;;4985627;28;20518;-77
2023/09/18 04:04:25;;;;;;;7.85;4.10;;;;;;;;;;4957337;28;20058;-76
2023/09/18 04:06:50;;;;;;;5.85;4.00;;;;;;;;;;4972368;28;20452;-77
2023/09/18 04:09:17;;;;;;;8.63;4.05;;;;;;;;;;4985260;28;20019;-76
2023/09/18 04:11:43;;;;;;;5.97;4.07;;;;;;;;;;4980101;28;20022;-77
2023/09/18 04:14:08;;;;;;;5.47;3.70;;;;;;;;;;4983600;28;20455;-75
2023/09/18 04:16:35;;;;;;;4.75;4.05;;;;;;;;;;4983200;28;20042;-77
2023/09/18 04:19:01;;;;;;;6.68;3.80;;;;;;;;;;4986340;28;20041;-77
2023/09/18 04:21:26;;;;;;;7.00;4.50;;;;;;;;;;4968048;28;20386;-76
2023/09/18 04:23:57;;;;;;;6.72;3.38;;;;;;;;;;4985119;28;20091;-77
2023/09/18 04:26:22;;;;;;;4.88;4.10;;;;;;;;;;4984490;28;20041;-77
2023/09/18 04:28:48;;;;;;;12.23;4.10;;;;;;;;;;5045520;28;20386;-77
2023/09/18 04:31:13;;;;;;;9.25;4.07;;;;;;;;;;5048761;28;20088;-77
2023/09/18 04:36:06;;;;;;;7.53;3.90;;;;;;;;;;4974135;28;20047;-81
2023/09/18 04:38:31;;;;;;;7.22;4.13;;;;;;;;;;5001662;28;20030;-81
2023/09/18 04:41:00;;;;;;;15.80;4.60;;;;;;;;;;5006211;28;20026;-80
2023/09/18 04:43:26;;;;;;;6.00;3.92;;;;;;;;;;5040653;28;21078;-81
2023/09/18 04:45:51;;;;;;;11.02;4.35;;;;;;;;;;5084824;28;20037;-81
2023/09/18 04:48:16;;;;;;;11.10;4.60;;;;;;;;;;5014955;28;20160;-81
2023/09/18 04:50:43;;;;;;;10.00;3.83;;;;;;;;;;5016367;28;20034;-79
2023/09/18 04:53:09;;;;;;;9.85;4.70;;;;;;;;;;5008871;28;20064;-80
2023/09/18 04:55:34;;;;;;;10.68;4.50;;;;;;;;;;5019853;28;20038;-80
2023/09/18 04:57:59;;;;;;;13.18;4.45;;;;;;;;;;5011076;28;20039;-80
2023/09/18 05:00:26;;;;;;;16.33;4.40;;;;;;;;;;5009826;28;20038;-80
2023/09/18 05:02:52;;;;;;;13.05;4.28;;;;;;;;;;5013794;28;20424;-80
2023/09/18 05:05:18;;;;;;;8.23;4.00;;;;;;;;;;5013583;28;20034;-79
2023/09/18 05:07:46;;;;;;;18.05;4.55;;;;;;;;;;4997043;28;20132;-81
2023/09/18 05:10:11;;;;;;;8.68;3.90;;;;;;;;;;5012825;28;20048;-81
2023/09/18 05:12:40;;;;;;;14.18;4.25;;;;;;;;;;5032215;28;20029;-81
2023/09/18 05:15:06;;;;;;;5.47;3.70;;;;;;;;;;5074666;28;20371;-81
2023/09/18 05:17:44;;;;;;;9.82;3.58;;;;;;;;;;4994626;28;20083;-81
2023/09/18 05:20:15;;;;;;;8.60;3.97;;;;;;;;;;4991399;28;20045;-79
2023/09/18 05:22:41;;;;;;;9.85;4.25;;;;;;;;;;4992531;28;20564;-80
2023/09/18 05:25:09;;;;;;;7.32;3.20;;;;;;;;;;4995456;28;20037;-82
2023/09/18 05:27:35;;;;;;;3.88;3.10;;;;;;;;;;5001296;28;20042;-81
2023/09/18 05:30:00;;;;;;;14.65;3.50;;;;;;;;;;5014110;28;20018;-80
2023/09/18 05:32:26;;;;;;;22.23;4.22;;;;;;;;;;5015714;28;20087;-79
2023/09/18 05:34:51;;;;;;;12.07;3.10;;;;;;;;;;5021981;28;20066;-81
2023/09/18 05:37:16;;;;;;;4.45;3.38;;;;;;;;;;5054252;28;20066;-82
2023/09/18 05:39:41;;;;;;;12.85;3.78;;;;;;;;;;5068402;28;20053;-80
2023/09/18 05:42:07;;;;;;;7.93;3.60;;;;;;;;;;4993817;28;20006;-80
2023/09/18 05:44:33;;;;;;;5.60;3.25;;;;;;;;;;4997773;28;20048;-80
2023/09/18 05:46:58;;;;;;;7.88;3.45;;;;;;;;;;5014333;28;20109;-81
2023/09/18 05:49:23;;;;;;;8.07;3.28;;;;;;;;;;5063948;28;20442;-80
2023/09/18 05:51:49;;;;;;;6.45;2.97;;;;;;;;;;5066259;28;20094;-81
2023/09/18 05:54:14;;;;;;;7.72;3.65;;;;;;;;;;5000309;28;20478;-81
2023/09/18 05:56:39;;;;;;;13.13;3.50;;;;;;;;;;5098248;28;20027;-80
2023/09/18 05:59:05;;;;;;;7.43;3.80;;;;;;;;;;5092346;28;20036;-80
2023/09/18 06:01:31;;;;;;;10.65;3.50;;;;;;;;;;5033839;28;20053;-82
2023/09/18 06:03:56;;;;;;;8.00;3.70;;;;;;;;;;4998388;28;20038;-80
2023/09/18 06:06:21;;;;;;;7.55;3.80;;;;;;;;;;5016851;28;20045;-79
2023/09/18 06:08:46;;;;;;;5.22;3.88;;;;;;;;;;5016488;28;20057;-80
2023/09/18 06:11:12;;;;;;;7.00;3.40;;;;;;;;;;5089349;28;20040;-80
2023/09/18 06:13:37;;;;;;;8.82;3.65;;;;;;;;;;5098950;28;20028;-81
2023/09/18 06:16:07;;;;;;;7.25;3.33;;;;;;;;;;5054763;28;20030;-82
2023/09/18 06:18:33;;;;;;;12.25;4.15;;;;;;;;;;4996608;28;20527;-79
2023/09/18 06:20:58;;;;;;;8.10;3.70;;;;;;;;;;5024558;28;20022;-79
2023/09/18 06:23:23;;;;;;;6.38;3.25;;;;;;;;;;5019739;28;20674;-81
2023/09/18 06:25:55;;;;;;;9.18;3.80;;;;;;;;;;5026844;28;20030;-80
2023/09/18 06:28:20;;;;;;;14.80;4.25;;;;;;;;;;5016085;28;20025;-80
2023/09/18 06:30:45;;;;;;;8.00;3.72;;;;;;;;;;5018546;28;20116;-80
2023/09/18 06:33:12;;;;;;;9.57;3.08;;;;;;;;;;5017896;28;20532;-80
2023/09/18 06:35:38;;;;;;;10.77;3.90;;;;;;;;;;5015788;28;20018;-80
2023/09/18 06:38:05;;;;;;;11.77;3.30;;;;;;;;;;5012488;28;20026;-81
2023/09/18 06:40:30;;;;;;;12.00;3.42;;;;;;;;;;5015944;28;20033;-80
2023/09/18 06:43:00;;;;;;;18.98;3.63;;;;;;;;;;5046600;28;20024;-80
2023/09/18 06:45:25;;;;;;;11.15;3.70;;;;;;;;;;5063932;28;20026;-80
2023/09/18 06:47:51;;;;;;;12.00;3.42;;;;;;;;;;4996711;28;20041;-79
2023/09/18 06:50:18;;;;;;;14.02;3.50;;;;;;;;;;5015202;28;20042;-79
2023/09/18 06:52:43;;;;;;;10.55;3.22;;;;;;;;;;5015091;28;20654;-79
2023/09/18 06:55:09;;;;;;;9.57;3.08;;;;;;;;;;5015489;28;20088;-79
2023/09/18 06:57:34;;;;;;;22.02;3.53;;;;;;;;;;4999530;28;20117;-79
2023/09/18 06:59:59;;;;;;;9.48;3.13;;;;;;;;;;5017457;28;20104;-80
2023/09/18 07:02:25;;;;;;;13.38;2.90;;;;;;;;;;5016383;28;20082;-80
2023/09/18 07:04:51;;;;;;;10.88;3.05;;;;;;;;;;4998601;28;20042;-79
2023/09/18 07:07:16;;;;;;;13.60;3.15;;;;;;;;;;4998971;28;20497;-79
2023/09/18 07:09:41;;;;;;;13.75;3.47;;;;;;;;;;5016827;28;20060;-78
2023/09/18 07:12:09;;;;;;;19.13;3.63;;;;;;;;;;5003334;28;20029;-80
2023/09/18 07:14:35;;;;;;;12.27;3.03;;;;;;;;;;5083606;28;20637;-80
2023/09/18 07:17:01;;;;;;;14.52;2.60;;;;;;;;;;5101968;28;20071;-79
2023/09/18 07:19:26;;;;;;;10.80;2.72;;;;;;;;;;5053344;28;20064;-79
2023/09/18 07:21:51;;;;;;;13.13;3.28;;;;;;;;;;4996769;28;20109;-80
2023/09/18 07:24:17;;;;;;;15.98;2.85;;;;;;;;;;5038920;28;20075;-80
2023/09/18 07:26:49;;;;;;;13.57;2.50;;;;;;;;;;5099683;28;20024;-80
2023/09/18 07:29:15;;;;;;;9.68;2.70;;;;;;;;;;5035446;28;20054;-80
2023/09/18 07:31:41;;;;;;;8.48;2.47;;;;;;;;;;4998552;28;20037;-79
2023/09/18 07:34:06;;;;;;;12.02;2.38;;;;;;;;;;4998479;28;20038;-80
2023/09/18 07:36:32;;;;;;;20.45;3.55;;;;;;;;;;5002505;28;20038;-80
2023/09/18 07:38:57;;;;;;;14.45;2.90;;;;;;;;;;5013802;28;20025;-79
2023/09/18 07:41:23;;;;;;;20.13;3.80;;;;;;;;;;5017405;28;20052;-80
2023/09/18 07:43:48;;;;;;;7.82;2.53;;;;;;;;;;5018795;28;20063;-80
2023/09/18 07:46:13;;;;;;;16.17;2.75;;;;;;;;;;5017145;28;20038;-78
2023/09/18 07:48:39;;;;;;;14.95;3.40;;;;;;;;;;5018238;28;20051;-79
2023/09/18 07:51:04;;;;;;;14.90;2.53;;;;;;;;;;5011668;28;20029;-80
2023/09/18 07:53:29;;;;;;;17.77;3.05;;;;;;;;;;5017885;28;20018;-79
2023/09/18 07:55:58;;;;;;;10.88;2.85;;;;;;;;;;5050060;28;20051;-80
2023/09/18 07:58:27;;;;;;;12.38;2.90;;;;;;;;;;5042656;28;20037;-79
2023/09/18 08:00:54;;;;;;;11.40;2.50;;;;;;;;;;4998888;28;20092;-80
2023/09/18 08:03:22;;;;;;;21.40;3.50;;;;;;;;;;4997835;28;20054;-80
2023/09/18 08:05:49;;;;;;;13.32;3.33;;;;;;;;;;5010150;28;20129;-79
2023/09/18 08:08:14;;;;;;;10.85;2.83;;;;;;;;;;4990848;28;20119;-80
2023/09/18 08:10:41;;;;;;;11.10;2.88;;;;;;;;;;5011648;28;20500;-80
2023/09/18 08:13:06;;;;;;;18.38;3.38;;;;;;;;;;5037694;28;20054;-79
2023/09/18 08:15:32;;;;;;;13.60;2.78;;;;;;;;;;5082796;28;20030;-79
2023/09/18 08:17:58;;;;;;;11.73;3.35;;;;;;;;;;5018182;28;20602;-80
2023/09/18 08:20:26;;;;;;;9.32;2.80;;;;;;;;;;5096821;28;20032;-80
2023/09/18 08:22:51;;;;;;;5.57;2.75;;;;;;;;;;5077922;28;20454;-80
2023/09/18 08:25:17;;;;;;;6.53;2.95;;;;;;;;;;5053697;28;20034;-79
2023/09/18 08:27:43;;;;;;;12.18;3.10;;;;;;;;;;5034661;28;20044;-80
2023/09/18 08:30:15;;;;;;;18.20;3.00;;;;;;;;;;5093792;28;20020;-79
2023/09/18 08:32:42;;;;;;;13.55;3.10;;;;;;;;;;4997988;28;20037;-80
2023/09/18 08:35:08;;;;;;;21.10;3.03;;;;;;;;;;5032421;28;20054;-79
2023/09/18 08:37:34;;;;;;;24.05;3.28;;;;;;;;;;5010024;28;20022;-79
2023/09/18 08:40:09;;;;;;;19.60;3.35;;;;;;;;;;5015173;28;20042;-80
2023/09/18 08:42:37;;;;;;;12.48;3.00;;;;;;;;;;5012778;28;20098;-79
2023/09/18 08:45:09;;;;;;;15.32;3.30;;;;;;;;;;4995901;28;20045;-80
2023/09/18 08:47:34;;;;;;;9.57;2.83;;;;;;;;;;5010392;28;20037;-79
2023/09/18 08:50:01;;;;;;;15.35;2.90;;;;;;;;;;5079980;28;20043;-81
2023/09/18 08:52:27;;;;;;;11.00;2.83;;;;;;;;;;5092013;28;20597;-80
2023/09/18 08:54:54;;;;;;;14.45;2.92;;;;;;;;;;5071613;28;20066;-79
2023/09/18 08:57:20;;;;;;;12.07;2.85;;;;;;;;;;5014153;28;20025;-78
2023/09/18 08:59:48;;;;;;;14.48;2.92;;;;;;;;;;5018409;28;20074;-80
2023/09/18 09:02:14;;;;;;;16.02;3.40;;;;;;;;;;5013787;28;20097;-80
2023/09/18 09:04:39;;;;;;;20.10;3.10;;;;;;;;;;5070353;28;20040;-79
2023/09/18 09:07:05;;;;;;;12.77;3.20;;;;;;;;;;5061425;28;20042;-79
2023/09/18 09:09:30;;;;;;;10.25;2.72;;;;;;;;;;5019310;28;20131;-81
2023/09/18 09:11:56;;;;;;;14.75;3.20;;;;;;;;;;5016420;28;20030;-78
2023/09/18 09:14:27;;;;;;;12.57;3.08;;;;;;;;;;5093366;28;20032;-81
2023/09/18 09:16:53;;;;;;;25.40;3.28;;;;;;;;;;5019518;28;20094;-80
2023/09/18 09:19:29;;;;;;;18.52;2.85;;;;;;;;;;5011194;28;20042;-80
2023/09/18 09:21:56;;;;;;;14.00;2.55;;;;;;;;;;5011875;28;20038;-80
2023/09/18 09:24:41;;;;;;;16.73;2.88;;;;;;;;;;5021814;28;20022;-80
2023/09/18 09:27:08;;;;;;;9.15;2.50;;;;;;;;;;5017043;28;20380;-80
2023/09/18 09:29:34;;;;;;;22.58;3.58;;;;;;;;;;5015566;28;20022;-80
2023/09/18 09:32:14;;;;;;;15.88;2.90;;;;;;;;;;5021610;28;20046;-80
2023/09/18 09:34:41;;;;;;;13.02;2.70;;;;;;;;;;5002709;28;20059;-80
2023/09/18 09:37:07;;;;;;;10.20;3.28;;;;;;;;;;5019045;28;20079;-78
2023/09/18 09:39:34;;;;;;;8.85;2.50;;;;;;;;;;5003185;28;20034;-81
2023/09/18 09:42:03;;;;;;;9.27;2.42;;;;;;;;;;4998534;28;20026;-79
2023/09/18 09:44:31;;;;;;;10.43;2.47;;;;;;;;;;5021327;28;20030;-81
2023/09/18 09:46:59;;;;;;;13.68;3.05;;;;;;;;;;5029831;28;20038;-79
2023/09/18 09:49:27;;;;;;;15.52;2.78;;;;;;;;;;5022331;28;20025;-79
2023/09/18 09:51:54;;;;;;;12.60;2.35;;;;;;;;;;5048991;28;20040;-80
2023/09/18 09:54:34;;;;;;;13.52;2.58;;;;;;;;;;5093398;28;20052;-79
2023/09/18 09:57:02;;;;;;;9.05;2.45;;;;;;;;;;5027454;28;20037;-77
2023/09/18 09:59:29;;;;;;;11.52;2.92;;;;;;;;;;5006092;28;20057;-79
2023/09/18 10:01:58;;;;;;;11.40;2.72;;;;;;;;;;5033465;28;20476;-81
2023/09/18 10:04:27;;;;;;;13.15;2.92;;;;;;;;;;5063629;28;20036;-79
2023/09/18 10:07:05;;;;;;;18.42;2.67;;;;;;;;;;5099804;28;20159;-80
2023/09/18 10:09:34;;;;;;;8.50;2.25;;;;;;;;;;5087931;28;20034;-80
2023/09/18 10:12:01;;;;;;;10.70;2.40;;;;;;;;;;5021137;28;20046;-81
2023/09/18 10:14:31;;;;;;;16.73;3.17;;;;;;;;;;5020417;28;20110;-80
2023/09/18 10:16:59;;;;;;;9.20;2.97;;;;;;;;;;5026071;28;20148;-81
2023/09/18 10:19:37;;;;;;;12.45;2.17;;;;;;;;;;5018938;28;20038;-81
2023/09/18 10:22:32;;;;;;;13.07;2.05;;;;;;;;;;5054852;28;20040;-80
2023/09/18 10:25:09;;;;;;;10.35;2.55;;;;;;;;;;5072698;28;20030;-80
2023/09/18 10:27:40;;;;;;;9.00;2.35;;;;;;;;;;5009987;28;20034;-80
2023/09/18 10:30:10;;;;;;;5.55;1.60;;;;;;;;;;5010657;28;20045;-80
2023/09/18 10:32:45;;;;;;;8.60;1.90;;;;;;;;;;5018356;28;20096;-81
2023/09/18 10:35:12;;;;;;;3.58;1.40;;;;;;;;;;4996399;28;20034;-80
2023/09/18 10:37:37;;;;;;;5.47;1.45;;;;;;;;;;5066509;28;20028;-81
2023/09/18 10:40:10;;;;;;;7.47;1.92;;;;;;;;;;5056318;28;20038;-80
2023/09/18 10:42:41;;;;;;;5.93;1.90;;;;;;;;;;5003647;28;20091;-81
2023/09/18 10:45:11;;;;;;;5.00;1.40;;;;;;;;;;5018413;28;20048;-79
2023/09/18 10:47:39;;;;;;;5.03;1.65;;;;;;;;;;5022233;28;20496;-81
2023/09/18 10:50:07;;;;;;;3.78;1.80;;;;;;;;;;5007961;28;20048;-81
2023/09/18 10:52:32;;;;;;;6.35;1.90;;;;;;;;;;5014625;28;20030;-80
2023/09/18 10:54:58;;;;;;;7.43;1.50;;;;;;;;;;5044671;28;20039;-80
2023/09/18 10:57:24;;;;;;;4.95;1.65;;;;;;;;;;5081926;28;20043;-81
2023/09/18 10:59:49;;;;;;;4.60;2.28;;;;;;;;;;5006768;28;20038;-78
2023/09/18 11:02:16;;;;;;;3.53;1.80;;;;;;;;;;4994179;28;20031;-79
2023/09/18 11:04:42;;;;;;;5.88;1.83;;;;;;;;;;4997528;28;20042;-79
2023/09/18 11:07:09;;;;;;;3.72;1.98;;;;;;;;;;4998094;28;20049;-80
2023/09/18 11:09:42;;;;;;;5.18;1.45;;;;;;;;;;5004845;28;20049;-81
2023/09/18 11:12:09;;;;;;;6.00;1.90;;;;;;;;;;5000756;28;20030;-83
2023/09/18 11:14:44;;;;;;;5.43;1.88;;;;;;;;;;5007145;28;20057;-82
2023/09/18 11:17:30;;;;;;;4.00;1.60;;;;;;;;;;5005876;28;20041;-81
2023/09/18 11:20:08;;;;;;;6.95;1.80;;;;;;;;;;4994487;28;20045;-81
2023/09/18 11:22:37;;;;;;;5.00;1.75;;;;;;;;;;5008165;28;20518;-81
2023/09/18 11:25:34;;;;;;;2.78;1.52;;;;;;;;;;5001460;28;20046;-82
2023/09/18 11:28:01;;;;;;;5.22;1.65;;;;;;;;;;4995943;28;20393;-82
2023/09/18 11:30:28;;;;;;;4.65;1.60;;;;;;;;;;5008802;28;20042;-84
2023/09/18 11:32:55;;;;;;;5.43;1.60;;;;;;;;;;5012915;28;20053;-85
2023/09/18 11:35:20;;;;;;;4.78;1.90;;;;;;;;;;5006324;28;20090;-83
2023/09/18 11:37:46;;;;;;;2.13;1.30;;;;;;;;;;5014355;28;20030;-85
2023/09/18 11:40:33;;;;;;;4.97;1.60;;;;;;;;;;5009710;28;20077;-84
2023/09/18 11:43:29;;;;;;;1.20;1.13;;;;;;;;;;5005931;28;20074;-83
2023/09/18 11:45:56;;;;;;;7.07;1.50;;;;;;;;;;5012213;28;20030;-85
2023/09/18 11:48:24;;;;;;;2.40;2.10;;;;;;;;;;5006019;28;20022;-82
2023/09/18 11:50:51;;;;;;;1.88;1.40;;;;;;;;;;5095347;28;20020;-81
2023/09/18 11:53:18;;;;;;;2.72;1.50;;;;;;;;;;5094912;28;20040;-84
2023/09/18 11:55:44;;;;;;;2.97;1.48;;;;;;;;;;5026151;28;20113;-81
2023/09/18 11:58:09;;;;;;;1.35;1.25;;;;;;;;;;5001607;28;20072;-82
2023/09/18 12:00:36;;;;;;;6.22;1.60;;;;;;;;;;5027007;28;20581;-82
2023/09/18 12:03:27;;;;;;;2.10;1.42;;;;;;;;;;5094723;28;20043;-84
2023/09/18 12:06:01;;;;;;;2.92;1.30;;;;;;;;;;5009121;28;20038;-83
2023/09/18 12:08:30;;;;;;;2.08;1.35;;;;;;;;;;5011081;28;20042;-83
2023/09/18 12:10:56;;;;;;;3.78;1.30;;;;;;;;;;5002769;28;20409;-82
2023/09/18 12:13:24;;;;;;;5.45;1.40;;;;;;;;;;5015041;28;20044;-83
2023/09/18 12:15:49;;;;;;;5.53;1.60;;;;;;;;;;5018143;28;20039;-82
2023/09/18 12:18:15;;;;;;;5.15;1.38;;;;;;;;;;5013489;28;20028;-81
2023/09/18 12:20:48;;;;;;;1.05;1.05;;;;;;;;;;5006786;28;20029;-83
2023/09/18 12:23:15;;;;;;;2.72;1.20;;;;;;;;;;5007731;28;20038;-83
2023/09/18 12:25:41;;;;;;;5.15;1.52;;;;;;;;;;5012080;28;20045;-81
2023/09/18 12:28:07;;;;;;;1.30;1.00;;;;;;;;;;5012568;28;20064;-82
2023/09/18 12:30:33;;;;;;;1.13;1.00;;;;;;;;;;5011270;28;20074;-83
2023/09/18 12:33:03;;;;;;;1.40;1.00;;;;;;;;;;5006722;28;20082;-82
2023/09/18 12:35:29;;;;;;;2.97;1.00;;;;;;;;;;5012564;28;20053;-83
2023/09/18 12:37:56;;;;;;;0.98;0.93;;;;;;;;;;5058321;28;20032;-82
2023/09/18 12:40:34;;;;;;;2.35;1.10;;;;;;;;;;5039565;28;20074;-82
2023/09/18 12:43:01;;;;;;;1.00;0.90;;;;;;;;;;5011787;28;20060;-81
2023/09/18 12:45:27;;;;;;;0.80;0.77;;;;;;;;;;5005895;28;20087;-82
2023/09/18 12:47:55;;;;;;;0.90;0.90;;;;;;;;;;5016146;28;20057;-81
2023/09/18 12:50:21;;;;;;;1.38;0.80;;;;;;;;;;5018607;28;20048;-82
2023/09/18 12:52:46;;;;;;;1.05;0.90;;;;;;;;;;4999997;28;20038;-80
2023/09/18 12:55:24;;;;;;;0.70;0.70;;;;;;;;;;5018103;28;20056;-81
2023/09/18 12:57:51;;;;;;;1.40;0.82;;;;;;;;;;5014497;28;20059;-80
2023/09/18 13:00:22;;;;;;;1.40;0.90;;;;;;;;;;5012299;28;20026;-78
2023/09/18 13:02:57;;;;;;;1.45;1.02;;;;;;;;;;5008049;28;20557;-80
2023/09/18 13:05:26;;;;;;;4.95;0.80;;;;;;;;;;5091412;28;20111;-80
2023/09/18 13:07:53;;;;;;;0.65;0.60;;;;;;;;;;5019775;28;20079;-80
2023/09/18 13:10:19;;;;;;;0.73;0.73;;;;;;;;;;5012796;28;20034;-80
2023/09/18 13:12:52;;;;;;;0.70;0.70;;;;;;;;;;5008658;28;20069;-80
2023/09/18 13:15:33;;;;;;;0.80;0.80;;;;;;;;;;5015455;28;20028;-80
2023/09/18 13:18:00;;;;;;;0.70;0.70;;;;;;;;;;5016118;28;20050;-80
2023/09/18 13:20:28;;;;;;;0.70;0.70;;;;;;;;;;5016002;28;20037;-79
2023/09/18 13:22:58;;;;;;;0.75;0.75;;;;;;;;;;5013880;28;20055;-79
2023/09/18 13:25:33;;;;;;;1.73;1.05;;;;;;;;;;5019552;23;20058;-76
2023/09/18 13:28:00;;;;;;;0.80;0.80;;;;;;;;;;4992268;28;20046;-77
2023/09/18 13:30:25;;;;;;;0.80;0.80;;;;;;;;;;4984314;28;20521;-78
2023/09/18 13:32:51;;;;;;;2.58;0.93;;;;;;;;;;4995935;28;20101;-78
2023/09/18 13:35:17;;;;;;;0.80;0.80;;;;;;;;;;5064550;28;20030;-77
2023/09/18 13:37:44;;;;;;;1.00;0.90;;;;;;;;;;5049955;28;20850;-78
2023/09/18 13:40:10;;;;;;;0.88;0.82;;;;;;;;;;4993900;28;21234;-78
2023/09/18 13:42:36;;;;;;;1.15;0.93;;;;;;;;;;5053318;28;20026;-78
2023/09/18 13:45:06;;;;;;;0.70;0.70;;;;;;;;;;5052141;28;20086;-77
2023/09/18 13:47:32;;;;;;;0.80;0.80;;;;;;;;;;5007027;28;20107;-77
2023/09/18 13:49:59;;;;;;;0.80;0.80;;;;;;;;;;5021589;28;20156;-77
2023/09/18 13:52:29;;;;;;;0.80;0.80;;;;;;;;;;5002654;28;20045;-78
2023/09/18 13:54:55;;;;;;;1.00;0.90;;;;;;;;;;4990891;28;20042;-78
2023/09/18 13:57:21;;;;;;;2.20;1.10;;;;;;;;;;5005554;28;20100;-77
2023/09/18 13:59:47;;;;;;;2.30;0.80;;;;;;;;;;5005840;28;20501;-78
2023/09/18 14:02:12;;;;;;;1.10;0.93;;;;;;;;;;4996004;28;20060;-78
2023/09/18 14:04:38;;;;;;;0.70;0.70;;;;;;;;;;5000899;28;20039;-78
2023/09/18 14:07:05;;;;;;;0.63;0.63;;;;;;;;;;5009752;28;20034;-77
2023/09/18 14:09:31;;;;;;;6.30;1.00;;;;;;;;;;5011124;28;20046;-78
2023/09/18 14:11:57;;;;;;;1.20;0.80;;;;;;;;;;4992395;28;20033;-77
2023/09/18 14:14:22;;;;;;;3.40;0.68;;;;;;;;;;5001876;28;20143;-78
2023/09/18 14:16:48;;;;;;;1.95;0.60;;;;;;;;;;4997424;28;20042;-78
2023/09/18 14:19:13;;;;;;;0.88;0.80;;;;;;;;;;5011620;28;20042;-78
2023/09/18 14:21:39;;;;;;;2.65;1.00;;;;;;;;;;5009625;28;20045;-78
2023/09/18 14:24:05;;;;;;;1.00;0.90;;;;;;;;;;4998561;28;20034;-78
2023/09/18 14:26:31;;;;;;;1.83;0.95;;;;;;;;;;5007267;28;20557;-77
2023/09/18 14:28:56;;;;;;;1.55;1.00;;;;;;;;;;4995046;28;20167;-78
2023/09/18 14:31:21;;;;;;;3.85;1.00;;;;;;;;;;5009450;28;20094;-78
2023/09/18 14:33:47;;;;;;;1.42;0.95;;;;;;;;;;5004446;28;20101;-77
2023/09/18 14:36:12;;;;;;;0.77;0.77;;;;;;;;;;5014196;28;20045;-79
2023/09/18 14:38:37;;;;;;;1.23;0.90;;;;;;;;;;5010868;28;20474;-78
2023/09/18 14:41:03;;;;;;;0.80;0.80;;;;;;;;;;5009596;28;20069;-78